Time;durP1;ratioP1;P1;durP2;ratioP2;P2;SDS_P1;SDS_P2;PMS_P1;PMS_P2;Temp;Humidity;BMP_temperature;BMP_pressure;BME280_temperature;BME280_humidity;BME280_pressure;Samples;Min_cycle;Max_cycle;Signal;HPM_P1;HPM_P2
2022/12/26 00:00:10;;;;;;;;;;;4.00;96.60;;;;;;5072666;28;19912;-80
2022/12/26 00:02:36;;;;;;;;;;;3.90;96.60;;;;;;5089245;28;19920;-80
2022/12/26 00:05:02;;;;;;;;;;;3.90;96.60;;;;;;5089332;28;19916;-80
2022/12/26 00:07:27;;;;;;;;;;;3.90;96.60;;;;;;5090663;28;19973;-80
2022/12/26 00:09:53;;;;;;;;;;;3.90;96.60;;;;;;5090720;28;19916;-79
2022/12/26 00:12:18;;;;;;;;;;;3.90;96.60;;;;;;5072244;28;19913;-80
2022/12/26 00:14:44;;;;;;;;;;;3.90;96.60;;;;;;5072190;28;19968;-80
2022/12/26 00:17:10;;;;;;;;;;;3.80;96.60;;;;;;5089163;28;19934;-81
2022/12/26 00:19:35;;;;;;;;;;;3.80;96.60;;;;;;5089237;28;19912;-81
2022/12/26 00:22:01;;;;;;;;;;;3.80;96.60;;;;;;5088806;28;20431;-79
2022/12/26 00:24:27;;;;;;;;;;;3.80;96.60;;;;;;5071570;28;19967;-80
2022/12/26 00:26:52;;;;;;;;;;;3.80;96.60;;;;;;5072086;28;20134;-81
2022/12/26 00:29:18;;;;;;;;;;;3.80;96.60;;;;;;5088979;28;19916;-81
2022/12/26 00:31:43;;;;;;;;;;;3.80;96.60;;;;;;5088688;28;20052;-79
2022/12/26 00:34:09;;;;;;;;;;;3.90;96.60;;;;;;5071791;28;19912;-81
2022/12/26 00:36:35;;;;;;;;;;;3.90;96.60;;;;;;5089888;28;19908;-79
2022/12/26 00:39:01;;;;;;;;;;;3.90;96.60;;;;;;5088663;28;19916;-81
2022/12/26 00:41:27;;;;;;;;;;;3.90;96.50;;;;;;5088414;28;19957;-80
2022/12/26 00:43:53;;;;;;;;;;;3.80;96.50;;;;;;5089632;28;19916;-81
2022/12/26 00:46:18;;;;;;;;;;;3.80;96.40;;;;;;5088575;28;19962;-78
2022/12/26 00:48:44;;;;;;;;;;;3.70;96.50;;;;;;5071415;28;19912;-80
2022/12/26 00:51:10;;;;;;;;;;;3.70;96.50;;;;;;5071538;28;19912;-81
2022/12/26 00:53:36;;;;;;;;;;;3.70;96.70;;;;;;5089712;28;20308;-81
2022/12/26 00:56:02;;;;;;;;;;;3.70;96.50;;;;;;5088329;28;20379;-81
2022/12/26 00:58:27;;;;;;;;;;;3.70;96.60;;;;;;5088092;28;19915;-80
2022/12/26 01:00:53;;;;;;;;;;;3.70;96.60;;;;;;5071037;28;20222;-79
2022/12/26 01:03:18;;;;;;;;;;;3.80;96.60;;;;;;5071031;28;19912;-79
2022/12/26 01:05:48;;;;;;;;;;;3.80;96.60;;;;;;5088026;28;19959;-80
2022/12/26 01:08:14;;;;;;;;;;;3.90;96.70;;;;;;5088148;28;20014;-80
2022/12/26 01:10:40;;;;;;;;;;;3.90;96.70;;;;;;5087997;28;19954;-80
2022/12/26 01:13:06;;;;;;;;;;;4.00;96.70;;;;;;5087656;28;19914;-80
2022/12/26 01:15:32;;;;;;;;;;;4.10;96.70;;;;;;5089235;28;20272;-80
2022/12/26 01:17:58;;;;;;;;;;;4.20;96.70;;;;;;5090053;28;19916;-80
2022/12/26 01:20:24;;;;;;;;;;;4.20;96.70;;;;;;5074366;28;19912;-80
2022/12/26 01:22:50;;;;;;;;;;;4.30;96.70;;;;;;5087399;28;19995;-80
2022/12/26 01:25:16;;;;;;;;;;;4.30;96.60;;;;;;5070593;28;20014;-80
2022/12/26 01:27:41;;;;;;;;;;;4.30;96.60;;;;;;5087677;28;19920;-80
2022/12/26 01:30:07;;;;;;;;;;;4.40;96.60;;;;;;5087883;28;19912;-80
2022/12/26 01:32:32;;;;;;;;;;;4.40;96.60;;;;;;5087591;28;19981;-80
2022/12/26 01:34:58;;;;;;;;;;;4.40;96.60;;;;;;5087702;28;19912;-80
2022/12/26 01:37:24;;;;;;;;;;;4.50;96.60;;;;;;5087720;28;19969;-79
2022/12/26 01:39:50;;;;;;;;;;;4.50;96.60;;;;;;5070544;28;20377;-80
2022/12/26 01:42:17;;;;;;;;;;;4.50;96.60;;;;;;5087308;28;19912;-80
2022/12/26 01:45:01;;;;;;;;;;;4.50;96.50;;;;;;5088548;28;19912;-80
2022/12/26 01:47:39;;;;;;;;;;;4.50;96.50;;;;;;5087225;28;19908;-79
2022/12/26 01:50:08;;;;;;;;;;;4.50;96.50;;;;;;5087365;28;19912;-80
2022/12/26 01:52:37;;;;;;;;;;;4.50;96.50;;;;;;5087269;28;19998;-80
2022/12/26 01:55:04;;;;;;;;;;;4.50;96.50;;;;;;5088236;28;19998;-80
2022/12/26 01:57:32;;;;;;;;;;;4.50;96.50;;;;;;5087266;28;19912;-80
2022/12/26 02:00:00;;;;;;;;;;;4.50;96.60;;;;;;5087183;28;19908;-79
2022/12/26 02:02:26;;;;;;;;;;;4.50;96.60;;;;;;5088469;28;20291;-79
2022/12/26 02:07:40;;;;;;;;;;;4.60;96.60;;;;;;5087590;28;20272;-79
2022/12/26 02:10:08;;;;;;;;;;;4.50;96.60;;;;;;5088327;28;19995;-80
2022/12/26 02:12:34;;;;;;;;;;;4.50;96.60;;;;;;5086852;28;19914;-80
2022/12/26 02:15:00;;;;;;;;;;;4.50;96.60;;;;;;5088433;28;19913;-79
2022/12/26 02:17:26;;;;;;;;;;;4.50;96.60;;;;;;5086784;28;20372;-79
2022/12/26 02:19:51;;;;;;;;;;;4.50;96.60;;;;;;5086905;28;19916;-80
2022/12/26 02:22:36;;;;;;;;;;;4.50;96.60;;;;;;5086756;28;20387;-79
2022/12/26 02:25:07;;;;;;;;;;;4.50;96.60;;;;;;5087970;28;20011;-80
2022/12/26 02:27:45;;;;;;;;;;;4.40;96.50;;;;;;5088001;28;20387;-80
2022/12/26 02:30:22;;;;;;;;;;;4.40;96.50;;;;;;5086809;28;19961;-80
2022/12/26 02:32:48;;;;;;;;;;;4.30;96.50;;;;;;5086612;28;19912;-79
2022/12/26 02:35:20;;;;;;;;;;;4.20;96.50;;;;;;5086654;28;19908;-79
2022/12/26 02:37:58;;;;;;;;;;;4.20;96.50;;;;;;5087953;28;20010;-80
2022/12/26 02:40:46;;;;;;;;;;;4.10;96.50;;;;;;5086464;28;19908;-79
2022/12/26 02:43:22;;;;;;;;;;;4.00;96.60;;;;;;5086383;28;20442;-79
2022/12/26 02:49:06;;;;;;;;;;;3.90;96.60;;;;;;5092867;28;19914;-79
2022/12/26 03:14:44;;;;;;;;;;;3.60;96.60;;;;;;5092073;28;20288;-79
2022/12/26 03:17:19;;;;;;;;;;;3.60;96.60;;;;;;5089710;28;20348;-79
2022/12/26 03:19:58;;;;;;;;;;;3.60;96.60;;;;;;5091567;28;19930;-79
2022/12/26 03:22:29;;;;;;;;;;;3.50;96.60;;;;;;5090303;28;19915;-79
2022/12/26 03:27:40;;;;;;;;;;;3.50;96.60;;;;;;5091773;28;20325;-80
2022/12/26 03:32:51;;;;;;;;;;;3.50;96.70;;;;;;5090829;28;19929;-79
2022/12/26 03:35:17;;;;;;;;;;;3.50;96.70;;;;;;5091186;28;19912;-80
2022/12/26 03:37:42;;;;;;;;;;;3.40;96.60;;;;;;5090242;28;19912;-80
2022/12/26 04:20:15;;;;;;;;;;;3.00;96.60;;;;;;5090064;28;20399;-80
2022/12/26 04:44:59;;;;;;;;;;;2.90;96.60;;;;;;5090758;28;20375;-80
2022/12/26 04:47:24;;;;;;;;;;;2.90;96.60;;;;;;5072116;28;20337;-80
2022/12/26 04:55:18;;;;;;;;;;;2.90;96.60;;;;;;5088856;28;19923;-81
2022/12/26 04:57:44;;;;;;;;;;;2.90;96.60;;;;;;5071858;28;19912;-81
2022/12/26 05:00:10;;;;;;;;;;;2.90;96.70;;;;;;5088565;28;19915;-81
2022/12/26 05:10:48;;;;;;;;;;;2.90;96.60;;;;;;5089931;28;19965;-81
2022/12/26 05:13:14;;;;;;;;;;;2.90;96.60;;;;;;5088135;28;20276;-81
2022/12/26 05:29:24;;;;;;;;;;;2.80;96.70;;;;;;5087970;28;20052;-81
2022/12/26 05:31:49;;;;;;;;;;;2.90;96.70;;;;;;5071040;28;19937;-80
2022/12/26 05:34:19;;;;;;;;;;;2.90;96.70;;;;;;5087496;28;19912;-81
2022/12/26 05:36:47;;;;;;;;;;;2.90;96.70;;;;;;5071830;28;19970;-81
2022/12/26 05:39:13;;;;;;;;;;;2.90;96.70;;;;;;5087582;28;20296;-81
2022/12/26 05:41:39;;;;;;;;;;;2.90;96.70;;;;;;5087574;28;19914;-80
2022/12/26 05:44:05;;;;;;;;;;;2.90;96.70;;;;;;5087679;28;19999;-81
2022/12/26 05:46:30;;;;;;;;;;;3.00;96.70;;;;;;5087698;28;20003;-80
2022/12/26 05:48:56;;;;;;;;;;;2.90;96.70;;;;;;5087643;28;19916;-80
2022/12/26 05:51:22;;;;;;;;;;;2.90;96.70;;;;;;5087692;28;19919;-80
2022/12/26 05:53:47;;;;;;;;;;;3.00;96.70;;;;;;5070277;28;19920;-81
2022/12/26 05:56:14;;;;;;;;;;;3.00;96.70;;;;;;5070824;28;19961;-80
2022/12/26 05:58:39;;;;;;;;;;;2.90;96.70;;;;;;5070351;28;20320;-80
2022/12/26 06:01:07;;;;;;;;;;;3.00;96.70;;;;;;5072678;28;19966;-85
2022/12/26 06:03:32;;;;;;;;;;;2.90;96.60;;;;;;5091988;28;20352;-85
2022/12/26 06:05:58;;;;;;;;;;;2.90;96.60;;;;;;5093325;28;20007;-85
2022/12/26 06:08:23;;;;;;;;;;;3.00;96.70;;;;;;5076133;28;20514;-85
2022/12/26 06:10:49;;;;;;;;;;;2.90;96.60;;;;;;5091266;28;20032;-84
2022/12/26 06:13:14;;;;;;;;;;;2.90;96.60;;;;;;5089625;28;19912;-84
2022/12/26 06:15:40;;;;;;;;;;;2.90;96.60;;;;;;5094062;28;19916;-85
2022/12/26 06:18:06;;;;;;;;;;;2.90;96.60;;;;;;5093090;28;19912;-85
2022/12/26 06:20:31;;;;;;;;;;;2.90;96.60;;;;;;5078784;28;20368;-85
2022/12/26 06:22:57;;;;;;;;;;;2.90;96.60;;;;;;5074736;28;20343;-85
2022/12/26 06:25:22;;;;;;;;;;;2.90;96.60;;;;;;5095758;28;19916;-85
2022/12/26 06:27:48;;;;;;;;;;;2.90;96.60;;;;;;5077216;28;19912;-85
2022/12/26 06:30:13;;;;;;;;;;;2.90;96.60;;;;;;5076804;28;19955;-85
2022/12/26 06:32:39;;;;;;;;;;;2.80;96.60;;;;;;5093159;28;19912;-85
2022/12/26 06:35:05;;;;;;;;;;;2.90;96.70;;;;;;5074250;28;19965;-85
2022/12/26 06:37:31;;;;;;;;;;;2.90;96.70;;;;;;5091175;28;19912;-85
2022/12/26 06:39:57;;;;;;;;;;;2.90;96.70;;;;;;5092353;28;19912;-85
2022/12/26 06:42:23;;;;;;;;;;;2.90;96.70;;;;;;5098886;28;20276;-85
2022/12/26 06:44:49;;;;;;;;;;;2.90;96.70;;;;;;5099104;28;19955;-85
2022/12/26 06:47:14;;;;;;;;;;;2.90;96.80;;;;;;5081135;28;19912;-84
2022/12/26 06:49:40;;;;;;;;;;;3.00;96.80;;;;;;5082658;28;19930;-84
2022/12/26 06:52:07;;;;;;;;;;;3.00;96.80;;;;;;5080996;28;19912;-85
2022/12/26 06:54:33;;;;;;;;;;;3.10;96.80;;;;;;5099449;28;19916;-85
2022/12/26 06:56:59;;;;;;;;;;;3.10;96.80;;;;;;5102604;28;20443;-84
2022/12/26 06:59:25;;;;;;;;;;;3.10;96.80;;;;;;5101643;28;19962;-84
2022/12/26 07:01:50;;;;;;;;;;;3.20;96.80;;;;;;5080647;28;20371;-84
2022/12/26 07:04:16;;;;;;;;;;;3.20;96.70;;;;;;5099278;28;20348;-85
2022/12/26 07:06:41;;;;;;;;;;;3.20;96.70;;;;;;5097298;28;19934;-85
2022/12/26 07:09:13;;;;;;;;;;;3.20;96.70;;;;;;5085969;28;20314;-85
2022/12/26 07:11:39;;;;;;;;;;;3.20;96.70;;;;;;5103090;28;19908;-84
2022/12/26 07:14:05;;;;;;;;;;;3.20;96.70;;;;;;5104139;28;19924;-84
2022/12/26 07:16:33;;;;;;;;;;;3.10;96.60;;;;;;5091332;28;19927;-85
2022/12/26 07:18:58;;;;;;;;;;;3.10;96.60;;;;;;5106961;28;19968;-84
2022/12/26 07:21:25;;;;;;;;;;;3.10;96.70;;;;;;5103220;28;19913;-85
2022/12/26 07:23:50;;;;;;;;;;;3.10;96.70;;;;;;5111570;28;19906;-84
2022/12/26 07:26:16;;;;;;;;;;;3.10;97.00;;;;;;5100357;28;19908;-84
2022/12/26 07:28:42;;;;;;;;;;;3.20;96.80;;;;;;5077836;28;20004;-85
2022/12/26 07:31:07;;;;;;;;;;;3.20;96.80;;;;;;5076298;28;19919;-85
2022/12/26 07:33:33;;;;;;;;;;;3.20;96.80;;;;;;5078210;28;20011;-85
2022/12/26 07:35:59;;;;;;;;;;;3.20;96.70;;;;;;5095445;28;19908;-85
2022/12/26 07:38:24;;;;;;;;;;;3.20;96.70;;;;;;5094718;28;19918;-84
2022/12/26 07:40:50;;;;;;;;;;;3.20;96.80;;;;;;5094836;28;20025;-85
2022/12/26 07:43:16;;;;;;;;;;;3.20;96.80;;;;;;5096962;28;19917;-84
2022/12/26 07:45:41;;;;;;;;;;;3.20;96.80;;;;;;5098237;28;19916;-84
2022/12/26 07:48:07;;;;;;;;;;;3.30;96.80;;;;;;5076445;28;19912;-85
2022/12/26 07:50:32;;;;;;;;;;;3.30;96.80;;;;;;5093464;28;19915;-85
2022/12/26 07:52:58;;;;;;;;;;;3.30;96.80;;;;;;5095993;28;19956;-85
2022/12/26 07:55:24;;;;;;;;;;;3.30;96.70;;;;;;5094305;28;19935;-84
2022/12/26 07:57:50;;;;;;;;;;;3.30;96.70;;;;;;5093117;28;19948;-84
2022/12/26 08:00:17;;;;;;;;;;;3.20;96.70;;;;;;5091595;28;20416;-84
2022/12/26 08:02:43;;;;;;;;;;;3.20;96.70;;;;;;5075313;28;19916;-84
2022/12/26 08:05:09;;;;;;;;;;;3.20;96.70;;;;;;5077279;28;19919;-85
2022/12/26 08:07:34;;;;;;;;;;;3.10;96.70;;;;;;5093753;28;19912;-85
2022/12/26 08:10:00;;;;;;;;;;;3.10;96.70;;;;;;5077475;28;19912;-84
2022/12/26 08:12:25;;;;;;;;;;;3.10;96.80;;;;;;5076543;28;20261;-84
2022/12/26 08:14:51;;;;;;;;;;;3.10;96.80;;;;;;5095553;28;20010;-84
2022/12/26 08:17:17;;;;;;;;;;;3.10;96.80;;;;;;5094072;28;19918;-85
2022/12/26 08:19:43;;;;;;;;;;;3.10;96.80;;;;;;5094024;28;19908;-85
2022/12/26 08:22:08;;;;;;;;;;;3.10;96.80;;;;;;5094847;28;19908;-84
2022/12/26 08:24:34;;;;;;;;;;;3.10;96.80;;;;;;5076792;28;19931;-85
2022/12/26 08:26:59;;;;;;;;;;;3.10;96.80;;;;;;5077934;28;19912;-84
2022/12/26 08:29:25;;;;;;;;;;;3.00;96.90;;;;;;5076328;28;19916;-85
2022/12/26 08:31:51;;;;;;;;;;;3.00;96.80;;;;;;5075695;28;19916;-85
2022/12/26 08:34:17;;;;;;;;;;;3.00;96.80;;;;;;5092634;28;19919;-85
2022/12/26 08:36:42;;;;;;;;;;;3.10;96.80;;;;;;5093649;28;20279;-85
2022/12/26 08:39:08;;;;;;;;;;;3.10;96.80;;;;;;5092515;28;19936;-84
2022/12/26 08:41:33;;;;;;;;;;;3.10;96.80;;;;;;5093627;28;20368;-85
2022/12/26 08:43:59;;;;;;;;;;;3.10;96.80;;;;;;5093484;28;19912;-85
2022/12/26 08:46:25;;;;;;;;;;;3.10;96.80;;;;;;5094224;28;20005;-84
2022/12/26 08:48:50;;;;;;;;;;;3.10;96.80;;;;;;5095292;28;19935;-83
2022/12/26 08:51:20;;;;;;;;;;;3.10;96.80;;;;;;5076879;28;19926;-84
2022/12/26 08:53:48;;;;;;;;;;;3.10;96.90;;;;;;5092306;28;19958;-85
2022/12/26 08:56:15;;;;;;;;;;;3.10;96.90;;;;;;5094159;28;19915;-85
2022/12/26 08:58:41;;;;;;;;;;;3.20;96.90;;;;;;5099333;28;19908;-85
2022/12/26 09:01:08;;;;;;;;;;;3.20;96.90;;;;;;5090684;28;19919;-84
2022/12/26 09:03:33;;;;;;;;;;;3.20;96.90;;;;;;5088672;28;19912;-83
2022/12/26 09:05:59;;;;;;;;;;;3.30;96.90;;;;;;5077130;28;19919;-85
2022/12/26 09:08:27;;;;;;;;;;;3.30;97.00;;;;;;5092000;28;19925;-85
2022/12/26 09:10:52;;;;;;;;;;;3.40;97.00;;;;;;5091159;28;20256;-84
2022/12/26 09:13:19;;;;;;;;;;;3.50;97.10;;;;;;5074675;28;19916;-85
2022/12/26 09:15:44;;;;;;;;;;;3.50;97.20;;;;;;5078620;28;19922;-84
2022/12/26 09:18:10;;;;;;;;;;;3.70;97.30;;;;;;5079333;28;20340;-85
2022/12/26 09:20:36;;;;;;;;;;;3.80;97.10;;;;;;5095628;28;20388;-85
2022/12/26 09:23:02;;;;;;;;;;;3.90;97.00;;;;;;5074427;28;19915;-85
2022/12/26 09:25:27;;;;;;;;;;;3.90;97.00;;;;;;5093668;28;20418;-84
2022/12/26 09:27:53;;;;;;;;;;;3.90;96.90;;;;;;5092675;28;19916;-84
2022/12/26 09:30:19;;;;;;;;;;;4.00;97.00;;;;;;5090865;28;19988;-84
2022/12/26 09:32:45;;;;;;;;;;;4.10;97.10;;;;;;5074468;28;19916;-84
2022/12/26 09:35:11;;;;;;;;;;;4.20;97.20;;;;;;5089401;28;19916;-83
2022/12/26 09:37:36;;;;;;;;;;;4.30;97.20;;;;;;5089156;28;19912;-84
2022/12/26 09:40:03;;;;;;;;;;;4.40;97.10;;;;;;5073160;28;19912;-85
2022/12/26 09:42:28;;;;;;;;;;;4.40;97.10;;;;;;5088178;28;19912;-84
2022/12/26 09:45:09;;;;;;;;;;;4.40;97.10;;;;;;5089102;28;19914;-85
2022/12/26 09:47:42;;;;;;;;;;;4.50;97.10;;;;;;5088941;28;19961;-85
2022/12/26 09:50:08;;;;;;;;;;;4.70;97.30;;;;;;5088873;28;19916;-85
2022/12/26 09:52:39;;;;;;;;;;;4.70;97.10;;;;;;5091918;28;20360;-85
2022/12/26 09:55:23;;;;;;;;;;;4.90;97.20;;;;;;5090419;28;19919;-83
2022/12/26 09:57:54;;;;;;;;;;;5.00;97.30;;;;;;5089423;28;19965;-85
2022/12/26 10:00:23;;;;;;;;;;;5.00;96.90;;;;;;5088669;28;20360;-84
2022/12/26 10:02:50;;;;;;;;;;;4.90;96.70;;;;;;5087586;28;20003;-84
2022/12/26 10:05:16;;;;;;;;;;;4.80;96.70;;;;;;5088100;28;19991;-84
2022/12/26 10:07:44;;;;;;;;;;;4.90;97.20;;;;;;5089546;28;20008;-84
2022/12/26 10:10:18;;;;;;;;;;;5.30;98.00;;;;;;5087506;28;20043;-85
2022/12/26 10:12:50;;;;;;;;;;;5.90;98.20;;;;;;5089600;28;19915;-85
2022/12/26 10:15:15;;;;;;;;;;;6.40;98.10;;;;;;5090943;28;19912;-85
2022/12/26 10:17:50;;;;;;;;;;;6.90;98.00;;;;;;5089514;28;19912;-84
2022/12/26 10:20:28;;;;;;;;;;;7.30;97.80;;;;;;5089326;28;19916;-85
2022/12/26 10:23:12;;;;;;;;;;;7.60;97.70;;;;;;5087878;28;20113;-85
2022/12/26 10:25:58;;;;;;;;;;;7.90;97.60;;;;;;5087663;28;20486;-85
2022/12/26 10:28:45;;;;;;;;;;;8.20;97.60;;;;;;5097404;28;20003;-83
2022/12/26 10:31:13;;;;;;;;;;;8.50;97.50;;;;;;5095147;28;19995;-84
2022/12/26 10:33:46;;;;;;;;;;;8.70;97.50;;;;;;5088716;28;19912;-85
2022/12/26 10:36:32;;;;;;;;;;;8.90;97.60;;;;;;5090257;28;20022;-86
2022/12/26 10:38:59;;;;;;;;;;;9.20;97.60;;;;;;5088837;28;19927;-86
2022/12/26 10:41:26;;;;;;;;;;;9.40;97.60;;;;;;5088486;28;19912;-85
2022/12/26 10:43:53;;;;;;;;;;;9.60;97.60;;;;;;5089259;28;19907;-85
2022/12/26 10:46:31;;;;;;;;;;;9.80;97.60;;;;;;5090680;28;19908;-85
2022/12/26 10:48:57;;;;;;;;;;;9.70;96.90;;;;;;5093657;28;19954;-85
2022/12/26 10:51:23;;;;;;;;;;;9.60;97.20;;;;;;5094078;28;19912;-85
2022/12/26 10:53:50;;;;;;;;;;;9.40;97.20;;;;;;5094054;28;20365;-84
2022/12/26 10:56:16;;;;;;;;;;;9.60;97.80;;;;;;5093773;28;19908;-82
2022/12/26 10:58:42;;;;;;;;;;;9.90;97.80;;;;;;5092888;28;19909;-85
2022/12/26 11:01:26;;;;;;;;;;;10.20;97.70;;;;;;5090771;28;19908;-85
2022/12/26 11:03:54;;;;;;;;;;;10.00;96.70;;;;;;5091096;28;20336;-83
2022/12/26 11:06:20;;;;;;;;;;;9.20;95.90;;;;;;5090802;28;20280;-84
2022/12/26 11:08:48;;;;;;;;;;;8.60;95.80;;;;;;5092556;28;20363;-83
2022/12/26 11:11:19;;;;;;;;;;;8.00;96.00;;;;;;5091604;28;19916;-83
2022/12/26 11:13:52;;;;;;;;;;;7.80;97.10;;;;;;5091324;28;19961;-81
2022/12/26 11:16:32;;;;;;;;;;;7.70;97.20;;;;;;5090194;28;19912;-83
2022/12/26 11:18:58;;;;;;;;;;;7.90;98.00;;;;;;5088217;28;20012;-83
2022/12/26 11:21:25;;;;;;;;;;;8.50;98.40;;;;;;5072597;28;20364;-83
2022/12/26 11:23:51;;;;;;;;;;;9.00;98.50;;;;;;5089112;28;20306;-84
2022/12/26 11:26:23;;;;;;;;;;;9.40;98.30;;;;;;5089750;28;20329;-83
2022/12/26 11:29:06;;;;;;;;;;;9.80;98.20;;;;;;5093065;28;19912;-84
2022/12/26 11:31:32;;;;;;;;;;;10.00;98.00;;;;;;5092429;28;19918;-82
2022/12/26 11:33:58;;;;;;;;;;;10.30;97.90;;;;;;5092019;28;19999;-83
2022/12/26 11:36:25;;;;;;;;;;;10.40;97.90;;;;;;5092922;28;19916;-83
2022/12/26 11:38:53;;;;;;;;;;;10.60;97.80;;;;;;5090378;28;20288;-82
2022/12/26 11:41:31;;;;;;;;;;;10.70;97.90;;;;;;5089674;28;19909;-82
2022/12/26 11:44:09;;;;;;;;;;;11.00;98.00;;;;;;5090496;28;19912;-82
2022/12/26 11:46:35;;;;;;;;;;;11.10;97.90;;;;;;5089234;28;19908;-83
2022/12/26 11:49:01;;;;;;;;;;;11.10;97.70;;;;;;5089354;28;20370;-82
2022/12/26 11:51:34;;;;;;;;;;;11.20;97.80;;;;;;5072404;28;20194;-83
2022/12/26 11:54:38;;;;;;;;;;;11.20;97.70;;;;;;5089263;28;20356;-82
2022/12/26 11:57:15;;;;;;;;;;;11.20;97.80;;;;;;5031377;28;19917;-81
2022/12/26 11:59:41;;;;;;;;;;;11.20;97.80;;;;;;5033711;28;20399;-83
2022/12/26 12:02:26;;;;;;;;;;;11.20;97.70;;;;;;5069741;28;20018;-83
2022/12/26 12:04:53;;;;;;;;;;;11.10;97.80;;;;;;5089141;28;19916;-82
2022/12/26 12:07:22;;;;;;;;;;;11.20;97.90;;;;;;5089268;28;19934;-81
2022/12/26 12:09:47;;;;;;;;;;;11.10;97.80;;;;;;5088882;28;19943;-83
2022/12/26 12:12:22;;;;;;;;;;;11.10;97.90;;;;;;5088943;28;19963;-82
2022/12/26 12:14:50;;;;;;;;;;;11.10;97.80;;;;;;5090156;28;19908;-82
2022/12/26 12:17:34;;;;;;;;;;;10.90;97.40;;;;;;5090032;28;19912;-83
2022/12/26 12:20:03;;;;;;;;;;;10.60;97.40;;;;;;5088437;28;20311;-81
2022/12/26 12:22:28;;;;;;;;;;;10.40;97.60;;;;;;5089757;28;19918;-82
2022/12/26 12:24:54;;;;;;;;;;;10.40;98.10;;;;;;5089404;28;20019;-82
2022/12/26 12:27:28;;;;;;;;;;;10.40;98.00;;;;;;5089412;28;19909;-82
2022/12/26 12:30:15;;;;;;;;;;;10.50;97.90;;;;;;5090681;28;19912;-82
2022/12/26 12:32:56;;;;;;;;;;;10.40;97.50;;;;;;5088689;28;20011;-83
2022/12/26 12:35:29;;;;;;;;;;;9.90;97.00;;;;;;5088780;28;19973;-82
2022/12/26 12:38:02;;;;;;;;;;;9.30;96.50;;;;;;5088752;28;19908;-83
2022/12/26 12:40:36;;;;;;;;;;;8.80;96.50;;;;;;5089178;28;20007;-83
2022/12/26 12:43:21;;;;;;;;;;;8.30;96.60;;;;;;5088758;28;19908;-84
2022/12/26 12:46:05;;;;;;;;;;;8.00;96.70;;;;;;5088493;28;20015;-83
2022/12/26 12:48:31;;;;;;;;;;;7.60;96.80;;;;;;5089454;28;20311;-83
2022/12/26 12:50:59;;;;;;;;;;;7.30;96.90;;;;;;5087677;28;19912;-82
2022/12/26 12:53:25;;;;;;;;;;;7.20;97.20;;;;;;5089494;28;19973;-83
2022/12/26 12:55:57;;;;;;;;;;;7.10;97.30;;;;;;5088040;28;20330;-83
2022/12/26 12:58:35;;;;;;;;;;;7.10;97.50;;;;;;5087986;28;20461;-83
2022/12/26 13:01:03;;;;;;;;;;;7.20;97.70;;;;;;5089174;28;19995;-82
2022/12/26 13:03:29;;;;;;;;;;;7.30;97.70;;;;;;5088381;28;20026;-84
2022/12/26 13:06:07;;;;;;;;;;;7.50;97.50;;;;;;5089883;28;20003;-83
2022/12/26 13:08:36;;;;;;;;;;;7.50;97.40;;;;;;5089954;28;20372;-82
2022/12/26 13:11:04;;;;;;;;;;;7.60;97.40;;;;;;5088585;28;19916;-82
2022/12/26 13:13:51;;;;;;;;;;;7.60;97.30;;;;;;5089695;28;19908;-82
2022/12/26 13:16:18;;;;;;;;;;;7.60;97.00;;;;;;5087515;28;19918;-82
2022/12/26 13:18:50;;;;;;;;;;;7.40;96.80;;;;;;5086933;28;19947;-83
2022/12/26 13:21:15;;;;;;;;;;;7.30;96.90;;;;;;5088765;28;20310;-81
2022/12/26 13:26:36;;;;;;;;;;;7.10;97.20;;;;;;5091578;28;19919;-82
2022/12/26 13:29:20;;;;;;;;;;;7.10;97.20;;;;;;5087711;28;19912;-83
2022/12/26 13:31:46;;;;;;;;;;;7.00;97.10;;;;;;5088155;28;19926;-82
2022/12/26 13:34:16;;;;;;;;;;;7.00;97.00;;;;;;5100137;28;19986;-83
2022/12/26 13:36:43;;;;;;;;;;;6.90;97.00;;;;;;5089334;28;20006;-82
2022/12/26 13:39:24;;;;;;;;;;;6.80;97.10;;;;;;5089148;28;19967;-83
2022/12/26 13:44:36;;;;;;;;;;;6.90;97.40;;;;;;5090385;28;19919;-82
2022/12/26 13:47:02;;;;;;;;;;;7.00;97.40;;;;;;5087279;28;19914;-82
2022/12/26 13:49:35;;;;;;;;;;;7.10;97.40;;;;;;5086772;28;20067;-83
2022/12/26 13:52:09;;;;;;;;;;;7.20;97.40;;;;;;5087296;28;19908;-83
2022/12/26 13:54:36;;;;;;;;;;;7.40;97.50;;;;;;5087092;28;19908;-83
2022/12/26 13:57:05;;;;;;;;;;;7.50;97.30;;;;;;5088482;28;20291;-82
2022/12/26 13:59:50;;;;;;;;;;;7.50;97.10;;;;;;5089061;28;20309;-81
2022/12/26 14:02:30;;;;;;;;;;;7.50;97.00;;;;;;5089230;28;19908;-82
2022/12/26 14:05:15;;;;;;;;;;;7.50;97.10;;;;;;5088119;28;19913;-83
2022/12/26 14:07:40;;;;;;;;;;;7.50;97.40;;;;;;5089345;28;19999;-83
2022/12/26 14:10:26;;;;;;;;;;;7.60;97.50;;;;;;5090064;28;20406;-83
2022/12/26 14:13:10;;;;;;;;;;;7.70;97.70;;;;;;5088120;28;20474;-81
2022/12/26 14:15:49;;;;;;;;;;;7.90;97.80;;;;;;5088547;28;20353;-82
2022/12/26 14:18:35;;;;;;;;;;;8.00;97.50;;;;;;5089258;28;19914;-82
2022/12/26 14:21:16;;;;;;;;;;;7.90;97.30;;;;;;5081276;28;19919;-83
2022/12/26 14:23:59;;;;;;;;;;;8.00;97.60;;;;;;5087042;28;19920;-83
2022/12/26 14:26:33;;;;;;;;;;;8.00;97.50;;;;;;5087996;28;19930;-83
2022/12/26 14:29:08;;;;;;;;;;;8.00;97.40;;;;;;5089832;28;19939;-83
2022/12/26 14:31:39;;;;;;;;;;;7.90;97.10;;;;;;5088594;28;19916;-83
2022/12/26 14:34:08;;;;;;;;;;;7.80;96.90;;;;;;5087654;28;19950;-82
2022/12/26 14:36:36;;;;;;;;;;;7.70;97.00;;;;;;5088620;28;20007;-83
2022/12/26 14:39:11;;;;;;;;;;;7.60;97.10;;;;;;5087667;28;19909;-83
2022/12/26 14:44:41;;;;;;;;;;;7.60;97.10;;;;;;5088415;28;19955;-83
2022/12/26 14:47:08;;;;;;;;;;;7.60;97.00;;;;;;5087419;28;20273;-82
2022/12/26 14:49:36;;;;;;;;;;;7.50;97.00;;;;;;5087138;28;19908;-82
2022/12/26 14:52:20;;;;;;;;;;;7.50;97.00;;;;;;5087466;28;20356;-83
2022/12/26 14:54:46;;;;;;;;;;;7.40;97.00;;;;;;5087208;28;19908;-82
2022/12/26 14:57:30;;;;;;;;;;;7.30;96.90;;;;;;5071280;28;19912;-83
2022/12/26 15:00:22;;;;;;;;;;;7.30;96.90;;;;;;5087422;28;19916;-83
2022/12/26 15:02:57;;;;;;;;;;;7.20;96.90;;;;;;5087769;28;19908;-82
2022/12/26 15:05:25;;;;;;;;;;;7.00;96.90;;;;;;5091260;28;19938;-82
2022/12/26 15:08:11;;;;;;;;;;;6.90;96.90;;;;;;5095828;28;19977;-83
2022/12/26 15:10:52;;;;;;;;;;;6.90;97.00;;;;;;5095913;28;19951;-83
2022/12/26 15:13:38;;;;;;;;;;;6.80;97.00;;;;;;5091502;28;19954;-82
2022/12/26 15:16:09;;;;;;;;;;;6.80;97.00;;;;;;5059345;28;19915;-81
2022/12/26 15:18:53;;;;;;;;;;;6.80;97.00;;;;;;5092896;28;20002;-82
2022/12/26 15:21:37;;;;;;;;;;;6.80;97.00;;;;;;5093206;28;19916;-83
2022/12/26 15:24:09;;;;;;;;;;;6.80;97.00;;;;;;5092068;28;20370;-81
2022/12/26 15:26:35;;;;;;;;;;;6.70;97.00;;;;;;5096939;28;19955;-84
2022/12/26 15:29:00;;;;;;;;;;;6.80;97.00;;;;;;5093828;28;19951;-84
2022/12/26 15:31:38;;;;;;;;;;;6.70;97.00;;;;;;5091228;28;19948;-83
2022/12/26 15:34:22;;;;;;;;;;;6.70;97.00;;;;;;5091813;28;19952;-84
2022/12/26 15:36:54;;;;;;;;;;;6.70;97.00;;;;;;5091714;28;19912;-82
2022/12/26 15:39:31;;;;;;;;;;;6.60;96.90;;;;;;5092863;28;20314;-73
2022/12/26 15:42:25;;;;;;;;;;;6.60;96.90;;;;;;5095426;28;19915;-83
2022/12/26 15:45:06;;;;;;;;;;;6.50;96.90;;;;;;5093662;28;19916;-83
2022/12/26 15:47:43;;;;;;;;;;;6.40;96.80;;;;;;5091628;28;19912;-83
2022/12/26 15:50:21;;;;;;;;;;;6.30;96.80;;;;;;5090923;28;19920;-82
2022/12/26 15:52:53;;;;;;;;;;;6.20;96.80;;;;;;5090776;28;19916;-82
2022/12/26 15:55:22;;;;;;;;;;;6.10;96.80;;;;;;5092768;28;20422;-82
2022/12/26 15:57:51;;;;;;;;;;;6.00;96.80;;;;;;5094418;28;20278;-83
2022/12/26 16:00:22;;;;;;;;;;;5.90;96.80;;;;;;5093184;28;19919;-82
2022/12/26 16:02:57;;;;;;;;;;;5.90;96.80;;;;;;5090582;28;19947;-83
2022/12/26 16:05:31;;;;;;;;;;;5.80;96.80;;;;;;5092776;28;19961;-83
2022/12/26 16:07:59;;;;;;;;;;;5.70;96.80;;;;;;5091276;28;20317;-82
2022/12/26 16:10:25;;;;;;;;;;;5.70;96.80;;;;;;5089766;28;19950;-83
2022/12/26 16:12:57;;;;;;;;;;;5.60;96.80;;;;;;5091059;28;19912;-83
2022/12/26 16:15:23;;;;;;;;;;;5.60;96.80;;;;;;5090794;28;20370;-83
2022/12/26 16:17:49;;;;;;;;;;;5.50;96.80;;;;;;5075353;28;19913;-84
2022/12/26 16:23:28;;;;;;;;;;;5.40;96.80;;;;;;5092726;28;19927;-82
2022/12/26 16:25:55;;;;;;;;;;;5.40;96.80;;;;;;5091462;28;20003;-84
2022/12/26 16:28:25;;;;;;;;;;;5.30;96.80;;;;;;5092290;28;20395;-83
2022/12/26 16:30:51;;;;;;;;;;;5.30;96.80;;;;;;5090265;28;19911;-81
2022/12/26 16:33:17;;;;;;;;;;;5.30;96.80;;;;;;5072068;28;20436;-83
2022/12/26 16:35:43;;;;;;;;;;;5.20;96.80;;;;;;5072472;28;19923;-84
2022/12/26 16:38:13;;;;;;;;;;;5.20;96.80;;;;;;5091312;28;19912;-82
2022/12/26 16:40:42;;;;;;;;;;;5.20;96.80;;;;;;5089718;28;19910;-84
2022/12/26 16:43:17;;;;;;;;;;;5.10;96.80;;;;;;5101168;28;19908;-82
2022/12/26 16:45:43;;;;;;;;;;;5.10;96.80;;;;;;5096301;28;19961;-83
2022/12/26 16:48:12;;;;;;;;;;;5.10;96.80;;;;;;5091297;28;19912;-84
2022/12/26 16:50:48;;;;;;;;;;;5.00;96.80;;;;;;5091355;28;19951;-84
2022/12/26 16:53:18;;;;;;;;;;;5.00;96.80;;;;;;5089061;28;20242;-83
2022/12/26 16:55:55;;;;;;;;;;;5.00;96.80;;;;;;5089268;28;19912;-83
2022/12/26 16:58:29;;;;;;;;;;;5.00;96.80;;;;;;5089087;28;19916;-84